sensor_id;sensor_type;location;lat;lon;timestamp;P1;durP1;ratioP1;P2;durP2;ratioP2
3967;SDS011;9221;42.646;23.380;2023-04-01T00:00:04;20.13;;;4.17;;
3967;SDS011;9221;42.646;23.380;2023-04-01T00:02:30;15.73;;;5.60;;
3967;SDS011;9221;42.646;23.380;2023-04-01T00:04:56;20.13;;;6.37;;
3967;SDS011;9221;42.646;23.380;2023-04-01T00:07:21;17.60;;;6.00;;
3967;SDS011;9221;42.646;23.380;2023-04-01T00:09:47;14.07;;;5.77;;
3967;SDS011;9221;42.646;23.380;2023-04-01T00:12:12;14.80;;;6.17;;
3967;SDS011;9221;42.646;23.380;2023-04-01T00:14:38;28.20;;;6.33;;
3967;SDS011;9221;42.646;23.380;2023-04-01T00:17:04;25.43;;;7.00;;
3967;SDS011;9221;42.646;23.380;2023-04-01T00:19:30;13.00;;;5.30;;
3967;SDS011;9221;42.646;23.380;2023-04-01T00:21:57;15.30;;;5.63;;
3967;SDS011;9221;42.646;23.380;2023-04-01T00:24:23;19.17;;;5.57;;
3967;SDS011;9221;42.646;23.380;2023-04-01T00:26:48;17.87;;;6.07;;
3967;SDS011;9221;42.646;23.380;2023-04-01T00:29:14;19.03;;;5.53;;
3967;SDS011;9221;42.646;23.380;2023-04-01T00:31:39;14.57;;;5.40;;
3967;SDS011;9221;42.646;23.380;2023-04-01T00:34:04;28.20;;;5.13;;
3967;SDS011;9221;42.646;23.380;2023-04-01T00:36:30;26.53;;;5.77;;
3967;SDS011;9221;42.646;23.380;2023-04-01T00:38:57;17.67;;;5.97;;
3967;SDS011;9221;42.646;23.380;2023-04-01T00:41:24;16.40;;;5.53;;
3967;SDS011;9221;42.646;23.380;2023-04-01T00:43:51;12.93;;;5.50;;
3967;SDS011;9221;42.646;23.380;2023-04-01T00:46:17;21.40;;;5.70;;
3967;SDS011;9221;42.646;23.380;2023-04-01T00:48:51;16.33;;;5.07;;
3967;SDS011;9221;42.646;23.380;2023-04-01T00:51:20;19.23;;;4.80;;
3967;SDS011;9221;42.646;23.380;2023-04-01T00:53:49;20.63;;;4.63;;
3967;SDS011;9221;42.646;23.380;2023-04-01T00:56:27;16.63;;;5.87;;
3967;SDS011;9221;42.646;23.380;2023-04-01T00:58:58;14.17;;;4.50;;
3967;SDS011;9221;42.646;23.380;2023-04-01T01:01:27;8.10;;;3.53;;
3967;SDS011;9221;42.646;23.380;2023-04-01T01:03:54;11.27;;;4.10;;
3967;SDS011;9221;42.646;23.380;2023-04-01T01:09:03;12.10;;;3.60;;
3967;SDS011;9221;42.646;23.380;2023-04-01T01:11:43;10.37;;;4.07;;
3967;SDS011;9221;42.646;23.380;2023-04-01T01:25:40;13.03;;;3.90;;
3967;SDS011;9221;42.646;23.380;2023-04-01T01:31:17;5.20;;;2.70;;
3967;SDS011;9221;42.646;23.380;2023-04-01T01:36:19;6.00;;;2.20;;
3967;SDS011;9221;42.646;23.380;2023-04-01T01:38:47;8.83;;;2.90;;
3967;SDS011;9221;42.646;23.380;2023-04-01T01:41:15;8.83;;;2.33;;
3967;SDS011;9221;42.646;23.380;2023-04-01T01:43:44;6.97;;;2.30;;
3967;SDS011;9221;42.646;23.380;2023-04-01T01:46:14;9.47;;;2.73;;
3967;SDS011;9221;42.646;23.380;2023-04-01T01:48:43;4.67;;;2.27;;
3967;SDS011;9221;42.646;23.380;2023-04-01T01:51:10;6.53;;;2.73;;
3967;SDS011;9221;42.646;23.380;2023-04-01T01:53:36;9.93;;;2.47;;
3967;SDS011;9221;42.646;23.380;2023-04-01T01:56:02;7.30;;;2.20;;
3967;SDS011;9221;42.646;23.380;2023-04-01T01:58:35;7.50;;;2.50;;
3967;SDS011;9221;42.646;23.380;2023-04-01T02:01:06;5.63;;;2.17;;
3967;SDS011;9221;42.646;23.380;2023-04-01T02:03:37;3.27;;;1.53;;
3967;SDS011;9221;42.646;23.380;2023-04-01T02:06:06;8.47;;;2.57;;
3967;SDS011;9221;42.646;23.380;2023-04-01T02:08:35;20.97;;;3.17;;
3967;SDS011;9221;42.646;23.380;2023-04-01T02:11:05;8.33;;;2.50;;
3967;SDS011;9221;42.646;23.380;2023-04-01T02:13:34;12.93;;;2.30;;
3967;SDS011;9221;42.646;23.380;2023-04-01T02:16:06;10.47;;;2.47;;
3967;SDS011;9221;42.646;23.380;2023-04-01T02:18:49;9.70;;;2.20;;
3967;SDS011;9221;42.646;23.380;2023-04-01T02:21:18;10.93;;;2.30;;
3967;SDS011;9221;42.646;23.380;2023-04-01T02:23:47;5.83;;;2.17;;
3967;SDS011;9221;42.646;23.380;2023-04-01T02:26:13;10.33;;;2.13;;
3967;SDS011;9221;42.646;23.380;2023-04-01T02:28:40;6.13;;;2.40;;
3967;SDS011;9221;42.646;23.380;2023-04-01T02:31:08;8.93;;;2.80;;
3967;SDS011;9221;42.646;23.380;2023-04-01T02:33:36;3.40;;;1.93;;
3967;SDS011;9221;42.646;23.380;2023-04-01T02:36:03;6.80;;;2.23;;
3967;SDS011;9221;42.646;23.380;2023-04-01T02:38:29;8.17;;;2.20;;
3967;SDS011;9221;42.646;23.380;2023-04-01T02:40:59;8.30;;;2.57;;
3967;SDS011;9221;42.646;23.380;2023-04-01T02:43:27;13.40;;;2.63;;
3967;SDS011;9221;42.646;23.380;2023-04-01T02:45:53;8.73;;;2.60;;
3967;SDS011;9221;42.646;23.380;2023-04-01T02:48:19;6.17;;;2.33;;
3967;SDS011;9221;42.646;23.380;2023-04-01T02:50:45;4.50;;;2.37;;
3967;SDS011;9221;42.646;23.380;2023-04-01T02:53:10;5.63;;;1.83;;
3967;SDS011;9221;42.646;23.380;2023-04-01T02:55:36;4.93;;;1.77;;
3967;SDS011;9221;42.646;23.380;2023-04-01T02:58:02;8.20;;;2.23;;
3967;SDS011;9221;42.646;23.380;2023-04-01T03:00:27;8.67;;;2.13;;
3967;SDS011;9221;42.646;23.380;2023-04-01T03:02:53;12.17;;;2.70;;
3967;SDS011;9221;42.646;23.380;2023-04-01T03:05:18;14.00;;;2.53;;
3967;SDS011;9221;42.646;23.380;2023-04-01T03:07:44;11.20;;;2.70;;
3967;SDS011;9221;42.646;23.380;2023-04-01T03:10:10;7.77;;;2.77;;
3967;SDS011;9221;42.646;23.380;2023-04-01T03:12:36;11.27;;;3.13;;
3967;SDS011;9221;42.646;23.380;2023-04-01T03:15:01;8.67;;;2.70;;
3967;SDS011;9221;42.646;23.380;2023-04-01T03:17:27;10.93;;;2.73;;
3967;SDS011;9221;42.646;23.380;2023-04-01T03:19:52;11.10;;;2.97;;
3967;SDS011;9221;42.646;23.380;2023-04-01T03:22:18;11.73;;;3.60;;
3967;SDS011;9221;42.646;23.380;2023-04-01T03:24:46;14.10;;;3.00;;
3967;SDS011;9221;42.646;23.380;2023-04-01T03:27:12;12.20;;;3.17;;
3967;SDS011;9221;42.646;23.380;2023-04-01T03:29:37;14.60;;;3.40;;
3967;SDS011;9221;42.646;23.380;2023-04-01T03:32:02;11.57;;;3.27;;
3967;SDS011;9221;42.646;23.380;2023-04-01T03:34:28;8.83;;;3.23;;
3967;SDS011;9221;42.646;23.380;2023-04-01T03:36:53;18.60;;;3.90;;
3967;SDS011;9221;42.646;23.380;2023-04-01T03:39:18;6.33;;;2.60;;
3967;SDS011;9221;42.646;23.380;2023-04-01T03:41:44;11.20;;;4.03;;
3967;SDS011;9221;42.646;23.380;2023-04-01T03:44:11;13.40;;;3.80;;
3967;SDS011;9221;42.646;23.380;2023-04-01T03:46:36;15.03;;;3.53;;
3967;SDS011;9221;42.646;23.380;2023-04-01T03:49:02;10.10;;;3.70;;
3967;SDS011;9221;42.646;23.380;2023-04-01T03:51:36;12.60;;;3.73;;
3967;SDS011;9221;42.646;23.380;2023-04-01T03:54:01;11.90;;;4.00;;
3967;SDS011;9221;42.646;23.380;2023-04-01T03:56:27;12.83;;;3.23;;
3967;SDS011;9221;42.646;23.380;2023-04-01T03:58:52;9.50;;;3.17;;
3967;SDS011;9221;42.646;23.380;2023-04-01T04:01:18;9.73;;;3.53;;
3967;SDS011;9221;42.646;23.380;2023-04-01T04:03:48;17.93;;;4.03;;
3967;SDS011;9221;42.646;23.380;2023-04-01T04:06:15;13.27;;;4.67;;
3967;SDS011;9221;42.646;23.380;2023-04-01T04:08:42;16.97;;;5.10;;
3967;SDS011;9221;42.646;23.380;2023-04-01T04:11:08;12.47;;;4.77;;
3967;SDS011;9221;42.646;23.380;2023-04-01T04:13:34;23.53;;;4.87;;
3967;SDS011;9221;42.646;23.380;2023-04-01T04:16:00;11.20;;;4.00;;
3967;SDS011;9221;42.646;23.380;2023-04-01T04:18:27;12.50;;;4.33;;
3967;SDS011;9221;42.646;23.380;2023-04-01T04:20:52;11.43;;;4.17;;
3967;SDS011;9221;42.646;23.380;2023-04-01T04:23:17;11.67;;;4.33;;
3967;SDS011;9221;42.646;23.380;2023-04-01T04:28:29;17.37;;;4.03;;
3967;SDS011;9221;42.646;23.380;2023-04-01T04:30:55;7.40;;;3.47;;
3967;SDS011;9221;42.646;23.380;2023-04-01T04:33:21;12.13;;;3.77;;
3967;SDS011;9221;42.646;23.380;2023-04-01T04:35:47;13.83;;;3.73;;
3967;SDS011;9221;42.646;23.380;2023-04-01T04:38:13;8.77;;;3.70;;
3967;SDS011;9221;42.646;23.380;2023-04-01T04:40:39;12.90;;;3.60;;
3967;SDS011;9221;42.646;23.380;2023-04-01T04:43:05;8.50;;;2.40;;
3967;SDS011;9221;42.646;23.380;2023-04-01T04:45:31;8.87;;;2.90;;
3967;SDS011;9221;42.646;23.380;2023-04-01T04:47:56;7.03;;;2.40;;
3967;SDS011;9221;42.646;23.380;2023-04-01T04:50:22;9.07;;;2.47;;
3967;SDS011;9221;42.646;23.380;2023-04-01T04:52:48;24.33;;;2.77;;
3967;SDS011;9221;42.646;23.380;2023-04-01T04:55:14;16.83;;;2.93;;
3967;SDS011;9221;42.646;23.380;2023-04-01T04:57:40;4.47;;;1.87;;
3967;SDS011;9221;42.646;23.380;2023-04-01T05:00:06;11.70;;;2.63;;
3967;SDS011;9221;42.646;23.380;2023-04-01T05:02:35;6.40;;;2.23;;
3967;SDS011;9221;42.646;23.380;2023-04-01T05:05:00;4.13;;;1.63;;
3967;SDS011;9221;42.646;23.380;2023-04-01T05:07:26;6.80;;;2.37;;
3967;SDS011;9221;42.646;23.380;2023-04-01T05:09:51;9.03;;;2.23;;
3967;SDS011;9221;42.646;23.380;2023-04-01T05:12:17;10.73;;;2.97;;
3967;SDS011;9221;42.646;23.380;2023-04-01T05:14:42;14.83;;;3.93;;
3967;SDS011;9221;42.646;23.380;2023-04-01T05:17:08;15.23;;;4.03;;
3967;SDS011;9221;42.646;23.380;2023-04-01T05:19:35;10.20;;;3.30;;
3967;SDS011;9221;42.646;23.380;2023-04-01T05:22:01;10.73;;;3.90;;
3967;SDS011;9221;42.646;23.380;2023-04-01T05:24:26;9.70;;;3.37;;
3967;SDS011;9221;42.646;23.380;2023-04-01T05:26:52;9.40;;;2.60;;
3967;SDS011;9221;42.646;23.380;2023-04-01T05:29:17;9.93;;;3.20;;
3967;SDS011;9221;42.646;23.380;2023-04-01T05:31:43;12.33;;;3.70;;
3967;SDS011;9221;42.646;23.380;2023-04-01T05:34:08;11.93;;;3.47;;
3967;SDS011;9221;42.646;23.380;2023-04-01T05:36:33;16.13;;;3.87;;
3967;SDS011;9221;42.646;23.380;2023-04-01T05:39:00;11.50;;;4.30;;
3967;SDS011;9221;42.646;23.380;2023-04-01T05:41:26;9.53;;;3.90;;
3967;SDS011;9221;42.646;23.380;2023-04-01T05:43:51;11.60;;;4.30;;
3967;SDS011;9221;42.646;23.380;2023-04-01T05:46:17;12.63;;;4.57;;
3967;SDS011;9221;42.646;23.380;2023-04-01T05:48:42;14.17;;;4.37;;
3967;SDS011;9221;42.646;23.380;2023-04-01T05:51:11;10.63;;;3.67;;
3967;SDS011;9221;42.646;23.380;2023-04-01T05:53:41;13.63;;;4.10;;
3967;SDS011;9221;42.646;23.380;2023-04-01T05:56:07;11.90;;;3.90;;
3967;SDS011;9221;42.646;23.380;2023-04-01T05:58:34;13.67;;;4.60;;
3967;SDS011;9221;42.646;23.380;2023-04-01T06:01:01;12.83;;;3.10;;
3967;SDS011;9221;42.646;23.380;2023-04-01T06:03:28;18.90;;;3.90;;
3967;SDS011;9221;42.646;23.380;2023-04-01T06:05:53;8.63;;;3.47;;
3967;SDS011;9221;42.646;23.380;2023-04-01T06:08:19;7.73;;;3.23;;
3967;SDS011;9221;42.646;23.380;2023-04-01T06:18:53;13.10;;;3.57;;
3967;SDS011;9221;42.646;23.380;2023-04-01T06:30:29;9.23;;;3.20;;
3967;SDS011;9221;42.646;23.380;2023-04-01T06:33:05;20.67;;;4.27;;
3967;SDS011;9221;42.646;23.380;2023-04-01T06:47:04;11.93;;;3.07;;
3967;SDS011;9221;42.646;23.380;2023-04-01T06:52:30;10.80;;;3.20;;
3967;SDS011;9221;42.646;23.380;2023-04-01T06:58:04;12.67;;;3.90;;
3967;SDS011;9221;42.646;23.380;2023-04-01T07:00:36;9.77;;;3.13;;
3967;SDS011;9221;42.646;23.380;2023-04-01T07:05:59;13.33;;;3.93;;
3967;SDS011;9221;42.646;23.380;2023-04-01T07:08:28;11.13;;;3.60;;
3967;SDS011;9221;42.646;23.380;2023-04-01T07:10:57;9.50;;;3.67;;
3967;SDS011;9221;42.646;23.380;2023-04-01T07:13:31;15.60;;;3.30;;
3967;SDS011;9221;42.646;23.380;2023-04-01T07:18:34;16.20;;;4.37;;
3967;SDS011;9221;42.646;23.380;2023-04-01T07:21:10;11.60;;;3.97;;
3967;SDS011;9221;42.646;23.380;2023-04-01T07:23:52;12.07;;;3.67;;
3967;SDS011;9221;42.646;23.380;2023-04-01T07:26:23;11.87;;;3.80;;
3967;SDS011;9221;42.646;23.380;2023-04-01T07:28:50;11.33;;;3.90;;
3967;SDS011;9221;42.646;23.380;2023-04-01T07:36:17;12.03;;;3.90;;
3967;SDS011;9221;42.646;23.380;2023-04-01T07:39:00;15.83;;;4.20;;
3967;SDS011;9221;42.646;23.380;2023-04-01T07:47:17;20.97;;;5.50;;
3967;SDS011;9221;42.646;23.380;2023-04-01T07:55:36;10.90;;;3.80;;
3967;SDS011;9221;42.646;23.380;2023-04-01T08:01:04;8.43;;;3.43;;
3967;SDS011;9221;42.646;23.380;2023-04-01T08:06:42;13.50;;;3.67;;
3967;SDS011;9221;42.646;23.380;2023-04-01T08:12:17;19.90;;;4.10;;
3967;SDS011;9221;42.646;23.380;2023-04-01T08:20:54;12.70;;;3.80;;
3967;SDS011;9221;42.646;23.380;2023-04-01T08:23:24;6.40;;;3.27;;
3967;SDS011;9221;42.646;23.380;2023-04-01T08:25:58;11.07;;;4.10;;
3967;SDS011;9221;42.646;23.380;2023-04-01T08:28:40;20.80;;;4.70;;
3967;SDS011;9221;42.646;23.380;2023-04-01T08:31:16;12.20;;;4.63;;
3967;SDS011;9221;42.646;23.380;2023-04-01T08:33:50;16.10;;;3.97;;
3967;SDS011;9221;42.646;23.380;2023-04-01T08:36:20;12.07;;;4.03;;
3967;SDS011;9221;42.646;23.380;2023-04-01T08:50:12;20.13;;;3.57;;
3967;SDS011;9221;42.646;23.380;2023-04-01T08:55:36;9.93;;;3.50;;
3967;SDS011;9221;42.646;23.380;2023-04-01T08:58:31;9.40;;;3.03;;
3967;SDS011;9221;42.646;23.380;2023-04-01T09:03:41;8.83;;;3.23;;
3967;SDS011;9221;42.646;23.380;2023-04-01T09:06:33;16.33;;;3.73;;
3967;SDS011;9221;42.646;23.380;2023-04-01T09:27:44;5.40;;;2.47;;
3967;SDS011;9221;42.646;23.380;2023-04-01T09:39:13;15.53;;;2.30;;
3967;SDS011;9221;42.646;23.380;2023-04-01T09:41:48;6.50;;;2.27;;
3967;SDS011;9221;42.646;23.380;2023-04-01T09:44:33;10.43;;;3.10;;
3967;SDS011;9221;42.646;23.380;2023-04-01T09:49:48;4.00;;;1.90;;
3967;SDS011;9221;42.646;23.380;2023-04-01T10:04:17;13.80;;;1.97;;
3967;SDS011;9221;42.646;23.380;2023-04-01T10:15:41;7.07;;;2.20;;
3967;SDS011;9221;42.646;23.380;2023-04-01T10:27:13;8.47;;;2.40;;
3967;SDS011;9221;42.646;23.380;2023-04-01T10:30:14;6.33;;;2.50;;
3967;SDS011;9221;42.646;23.380;2023-04-01T10:33:26;15.23;;;3.17;;
3967;SDS011;9221;42.646;23.380;2023-04-01T10:44:03;5.43;;;2.07;;
3967;SDS011;9221;42.646;23.380;2023-04-01T10:58:12;11.13;;;3.03;;
3967;SDS011;9221;42.646;23.380;2023-04-01T11:18:25;11.10;;;2.83;;
3967;SDS011;9221;42.646;23.380;2023-04-01T11:21:18;7.27;;;2.83;;
3967;SDS011;9221;42.646;23.380;2023-04-01T11:31:58;5.07;;;1.30;;
3967;SDS011;9221;42.646;23.380;2023-04-01T11:37:21;17.13;;;2.00;;
3967;SDS011;9221;42.646;23.380;2023-04-01T11:42:40;18.57;;;1.80;;
3967;SDS011;9221;42.646;23.380;2023-04-01T11:45:21;3.47;;;1.23;;
3967;SDS011;9221;42.646;23.380;2023-04-01T11:50:53;13.73;;;1.80;;
3967;SDS011;9221;42.646;23.380;2023-04-01T11:56:07;10.07;;;1.63;;
3967;SDS011;9221;42.646;23.380;2023-04-01T12:02:04;6.00;;;1.67;;
3967;SDS011;9221;42.646;23.380;2023-04-01T12:04:51;5.37;;;1.23;;
3967;SDS011;9221;42.646;23.380;2023-04-01T12:07:39;5.40;;;1.20;;
3967;SDS011;9221;42.646;23.380;2023-04-01T12:10:19;12.47;;;1.53;;
3967;SDS011;9221;42.646;23.380;2023-04-01T12:13:16;7.37;;;1.80;;
3967;SDS011;9221;42.646;23.380;2023-04-01T12:21:33;9.63;;;2.17;;
3967;SDS011;9221;42.646;23.380;2023-04-01T12:36:09;5.97;;;2.33;;
3967;SDS011;9221;42.646;23.380;2023-04-01T12:41:32;4.63;;;2.13;;
3967;SDS011;9221;42.646;23.380;2023-04-01T12:44:36;7.63;;;2.87;;
3967;SDS011;9221;42.646;23.380;2023-04-01T12:53:06;15.30;;;2.67;;
3967;SDS011;9221;42.646;23.380;2023-04-01T12:56:00;7.57;;;2.40;;
3967;SDS011;9221;42.646;23.380;2023-04-01T13:09:21;23.27;;;2.60;;
3967;SDS011;9221;42.646;23.380;2023-04-01T13:12:16;2.17;;;1.50;;
3967;SDS011;9221;42.646;23.380;2023-04-01T13:18:00;9.90;;;2.50;;
3967;SDS011;9221;42.646;23.380;2023-04-01T13:28:38;2.10;;;0.80;;
3967;SDS011;9221;42.646;23.380;2023-04-01T13:33:47;2.97;;;1.10;;
3967;SDS011;9221;42.646;23.380;2023-04-01T13:39:12;1.83;;;1.10;;
3967;SDS011;9221;42.646;23.380;2023-04-01T13:44:14;3.80;;;1.00;;
3967;SDS011;9221;42.646;23.380;2023-04-01T13:46:52;1.13;;;0.60;;
3967;SDS011;9221;42.646;23.380;2023-04-01T14:02:31;3.50;;;0.90;;
3967;SDS011;9221;42.646;23.380;2023-04-01T14:05:17;1.80;;;0.83;;
3967;SDS011;9221;42.646;23.380;2023-04-01T14:10:41;12.93;;;3.23;;
3967;SDS011;9221;42.646;23.380;2023-04-01T14:13:15;11.30;;;3.70;;
3967;SDS011;9221;42.646;23.380;2023-04-01T14:32:54;10.53;;;2.40;;
3967;SDS011;9221;42.646;23.380;2023-04-01T14:35:37;6.63;;;2.13;;
3967;SDS011;9221;42.646;23.380;2023-04-01T14:41:24;3.93;;;1.87;;
3967;SDS011;9221;42.646;23.380;2023-04-01T14:52:12;6.67;;;2.73;;
3967;SDS011;9221;42.646;23.380;2023-04-01T14:54:42;8.50;;;2.47;;
3967;SDS011;9221;42.646;23.380;2023-04-01T14:59:41;2.93;;;1.70;;
3967;SDS011;9221;42.646;23.380;2023-04-01T15:05:16;8.43;;;1.50;;
3967;SDS011;9221;42.646;23.380;2023-04-01T15:13:34;4.47;;;1.70;;
3967;SDS011;9221;42.646;23.380;2023-04-01T15:19:28;5.90;;;2.30;;
3967;SDS011;9221;42.646;23.380;2023-04-01T15:27:51;5.90;;;2.40;;
3967;SDS011;9221;42.646;23.380;2023-04-01T15:38:48;8.37;;;2.73;;
3967;SDS011;9221;42.646;23.380;2023-04-01T15:41:26;5.77;;;2.63;;
3967;SDS011;9221;42.646;23.380;2023-04-01T15:44:01;8.77;;;3.23;;
3967;SDS011;9221;42.646;23.380;2023-04-01T15:46:41;8.20;;;2.33;;
3967;SDS011;9221;42.646;23.380;2023-04-01T15:57:25;5.60;;;1.20;;
3967;SDS011;9221;42.646;23.380;2023-04-01T16:22:20;5.40;;;2.20;;
3967;SDS011;9221;42.646;23.380;2023-04-01T16:30:37;4.30;;;1.97;;
3967;SDS011;9221;42.646;23.380;2023-04-01T16:35:50;4.10;;;1.50;;
3967;SDS011;9221;42.646;23.380;2023-04-01T16:40:47;3.53;;;1.67;;
3967;SDS011;9221;42.646;23.380;2023-04-01T16:43:37;10.43;;;2.23;;
3967;SDS011;9221;42.646;23.380;2023-04-01T17:02:16;2.60;;;1.10;;
3967;SDS011;9221;42.646;23.380;2023-04-01T17:07:22;1.50;;;0.90;;
3967;SDS011;9221;42.646;23.380;2023-04-01T17:21:18;1.93;;;0.80;;
3967;SDS011;9221;42.646;23.380;2023-04-01T17:23:52;1.53;;;0.77;;
3967;SDS011;9221;42.646;23.380;2023-04-01T17:29:31;2.87;;;0.80;;
3967;SDS011;9221;42.646;23.380;2023-04-01T17:32:13;1.43;;;0.80;;
3967;SDS011;9221;42.646;23.380;2023-04-01T17:43:03;1.80;;;0.80;;
3967;SDS011;9221;42.646;23.380;2023-04-01T17:46:20;2.20;;;0.60;;
3967;SDS011;9221;42.646;23.380;2023-04-01T17:51:29;1.33;;;0.80;;
3967;SDS011;9221;42.646;23.380;2023-04-01T17:54:26;7.23;;;1.30;;
3967;SDS011;9221;42.646;23.380;2023-04-01T18:02:57;2.70;;;1.10;;
3967;SDS011;9221;42.646;23.380;2023-04-01T18:11:02;1.97;;;1.37;;
3967;SDS011;9221;42.646;23.380;2023-04-01T18:14:21;7.90;;;2.10;;
3967;SDS011;9221;42.646;23.380;2023-04-01T18:19:09;3.63;;;1.97;;
3967;SDS011;9221;42.646;23.380;2023-04-01T18:21:44;3.93;;;1.90;;
3967;SDS011;9221;42.646;23.380;2023-04-01T18:24:21;4.17;;;1.80;;
3967;SDS011;9221;42.646;23.380;2023-04-01T18:27:17;2.93;;;1.70;;
3967;SDS011;9221;42.646;23.380;2023-04-01T18:29:53;3.67;;;1.67;;
3967;SDS011;9221;42.646;23.380;2023-04-01T18:37:55;4.33;;;2.20;;
3967;SDS011;9221;42.646;23.380;2023-04-01T18:43:30;3.40;;;1.60;;
3967;SDS011;9221;42.646;23.380;2023-04-01T18:46:07;2.67;;;1.70;;
3967;SDS011;9221;42.646;23.380;2023-04-01T18:49:05;6.00;;;2.00;;
3967;SDS011;9221;42.646;23.380;2023-04-01T18:54:23;5.03;;;2.57;;
3967;SDS011;9221;42.646;23.380;2023-04-01T18:57:07;2.63;;;1.47;;
3967;SDS011;9221;42.646;23.380;2023-04-01T19:02:35;2.83;;;1.50;;
3967;SDS011;9221;42.646;23.380;2023-04-01T19:08:17;2.10;;;1.60;;
3967;SDS011;9221;42.646;23.380;2023-04-01T19:10:58;2.67;;;1.33;;
3967;SDS011;9221;42.646;23.380;2023-04-01T19:21:56;4.53;;;2.30;;
3967;SDS011;9221;42.646;23.380;2023-04-01T19:35:19;6.27;;;1.40;;
3967;SDS011;9221;42.646;23.380;2023-04-01T19:46:43;1.00;;;0.80;;
3967;SDS011;9221;42.646;23.380;2023-04-01T19:59:49;1.97;;;1.00;;
3967;SDS011;9221;42.646;23.380;2023-04-01T20:07:45;3.67;;;1.50;;
3967;SDS011;9221;42.646;23.380;2023-04-01T20:10:20;1.07;;;0.67;;
3967;SDS011;9221;42.646;23.380;2023-04-01T20:15:46;2.50;;;1.03;;
3967;SDS011;9221;42.646;23.380;2023-04-01T20:18:27;2.13;;;0.90;;
3967;SDS011;9221;42.646;23.380;2023-04-01T20:21:45;1.13;;;0.90;;
3967;SDS011;9221;42.646;23.380;2023-04-01T20:23:59;1.10;;;0.60;;
3967;SDS011;9221;42.646;23.380;2023-04-01T20:26:50;1.07;;;0.63;;
3967;SDS011;9221;42.646;23.380;2023-04-01T20:34:57;1.10;;;0.70;;
3967;SDS011;9221;42.646;23.380;2023-04-01T20:37:49;1.00;;;0.70;;
3967;SDS011;9221;42.646;23.380;2023-04-01T20:40:33;1.10;;;0.60;;
3967;SDS011;9221;42.646;23.380;2023-04-01T20:51:06;2.43;;;0.90;;
3967;SDS011;9221;42.646;23.380;2023-04-01T21:01:41;4.20;;;0.73;;
3967;SDS011;9221;42.646;23.380;2023-04-01T22:07:20;0.90;;;0.50;;
3967;SDS011;9221;42.646;23.380;2023-04-01T22:12:17;1.50;;;0.77;;
3967;SDS011;9221;42.646;23.380;2023-04-01T22:15:16;1.30;;;0.73;;
3967;SDS011;9221;42.646;23.380;2023-04-01T22:29:10;1.53;;;0.83;;
3967;SDS011;9221;42.646;23.380;2023-04-01T22:31:51;3.63;;;1.17;;
3967;SDS011;9221;42.646;23.380;2023-04-01T22:34:27;1.60;;;0.80;;
3967;SDS011;9221;42.646;23.380;2023-04-01T22:36:59;0.70;;;0.43;;
3967;SDS011;9221;42.646;23.380;2023-04-01T22:47:54;0.80;;;0.63;;
3967;SDS011;9221;42.646;23.380;2023-04-01T22:55:40;1.33;;;0.50;;
3967;SDS011;9221;42.646;23.380;2023-04-01T22:58:09;0.60;;;0.40;;
3967;SDS011;9221;42.646;23.380;2023-04-01T23:00:47;0.43;;;0.30;;
3967;SDS011;9221;42.646;23.380;2023-04-01T23:03:24;0.53;;;0.30;;
3967;SDS011;9221;42.646;23.380;2023-04-01T23:05:56;0.50;;;0.40;;
3967;SDS011;9221;42.646;23.380;2023-04-01T23:11:02;1.57;;;0.50;;
3967;SDS011;9221;42.646;23.380;2023-04-01T23:13:37;1.90;;;0.57;;
3967;SDS011;9221;42.646;23.380;2023-04-01T23:16:07;1.00;;;0.50;;
3967;SDS011;9221;42.646;23.380;2023-04-01T23:18:37;0.50;;;0.30;;
3967;SDS011;9221;42.646;23.380;2023-04-01T23:24:33;0.53;;;0.40;;
3967;SDS011;9221;42.646;23.380;2023-04-01T23:26:50;1.13;;;0.60;;
3967;SDS011;9221;42.646;23.380;2023-04-01T23:29:21;0.87;;;0.40;;
3967;SDS011;9221;42.646;23.380;2023-04-01T23:31:48;0.70;;;0.40;;
3967;SDS011;9221;42.646;23.380;2023-04-01T23:34:32;1.40;;;0.60;;
3967;SDS011;9221;42.646;23.380;2023-04-01T23:37:12;0.63;;;0.30;;
3967;SDS011;9221;42.646;23.380;2023-04-01T23:39:41;0.40;;;0.30;;
3967;SDS011;9221;42.646;23.380;2023-04-01T23:42:19;0.50;;;0.30;;
3967;SDS011;9221;42.646;23.380;2023-04-01T23:44:51;0.77;;;0.40;;
3967;SDS011;9221;42.646;23.380;2023-04-01T23:47:21;1.70;;;0.50;;
3967;SDS011;9221;42.646;23.380;2023-04-01T23:49:55;1.53;;;0.33;;
3967;SDS011;9221;42.646;23.380;2023-04-01T23:52:26;0.70;;;0.50;;
3967;SDS011;9221;42.646;23.380;2023-04-01T23:54:55;0.40;;;0.33;;
3967;SDS011;9221;42.646;23.380;2023-04-01T23:57:32;0.80;;;0.40;;
